| time (UTC) | temp F | wind direction | speed MPH | gust MPH | rain 1hr in | rain 24hr in | rain mn in | humidity % | barometer mb |
| 20260508051540 | 49 | 297 | 2.0 | 5.0 | 0.00 | 0.97 | 0.00 | 54 | 1007.2 |
| 20260508050039 | 49 | 335 | 1.0 | 5.0 | 0.00 | 0.97 | 0.00 | 54 | 1007.2 |
| 20260508044536 | 50 | 292 | 2.0 | 5.0 | 0.00 | 0.97 | 0.00 | 53 | 1007.4 |
| 20260508043052 | 50 | 291 | 2.0 | 4.0 | 0.00 | 0.97 | 0.00 | 53 | 1007.2 |
| 20260508041535 | 50 | 338 | 2.0 | 8.0 | 0.00 | 0.97 | 0.00 | 52 | 1007.2 |
| 20260508040031 | 50 | 257 | 4.0 | 8.0 | 0.00 | 0.97 | 0.00 | 53 | 1007.4 |
| 20260508034529 | 50 | 325 | 2.0 | 8.0 | 0.00 | 0.97 | 0.97 | 54 | 1007.3 |
| 20260508033031 | 50 | 313 | 2.0 | 5.0 | 0.00 | 0.97 | 0.97 | 53 | 1007.4 |
| 20260508031528 | 50 | 298 | 1.0 | 3.0 | 0.00 | 0.97 | 0.97 | 53 | 1007.4 |
| 20260508030042 | 50 | 304 | 0.0 | 4.0 | 0.00 | 0.97 | 0.97 | 55 | 1007.5 |
| 20260508024531 | 50 | 311 | 1.0 | 4.0 | 0.00 | 1.40 | 0.97 | 56 | 1007.6 |
| 20260508023025 | 50 | 292 | 1.0 | 5.0 | 0.00 | 1.40 | 0.97 | 54 | 1007.4 |
| 20260508021527 | 51 | 317 | 1.0 | 3.0 | 0.00 | 1.40 | 0.97 | 57 | 1007.6 |
| 20260508020024 | 51 | 307 | 1.0 | 3.0 | 0.00 | 1.40 | 0.97 | 54 | 1007.8 |
| 20260508014524 | 52 | 331 | 2.0 | 5.0 | 0.00 | 1.40 | 0.97 | 52 | 1007.6 |
| 20260508013023 | 52 | 321 | 1.0 | 3.0 | 0.00 | 1.40 | 0.97 | 53 | 1007.5 |
| 20260508011523 | 53 | 303 | 1.0 | 4.0 | 0.00 | 1.40 | 0.97 | 52 | 1007.3 |
| 20260508010026 | 54 | 305 | 1.0 | 5.0 | 0.00 | 1.40 | 0.97 | 49 | 1007.1 |
| 20260508004521 | 54 | 296 | 1.0 | 3.0 | 0.00 | 1.40 | 0.97 | 46 | 1006.9 |
| 20260508003021 | 55 | 328 | 1.0 | 4.0 | 0.00 | 1.40 | 0.97 | 45 | 1006.4 |
| 20260508001520 | 56 | 309 | 0.0 | 8.0 | 0.00 | 1.40 | 0.97 | 44 | 1006.2 |
| 20260508000022 | 56 | 311 | 2.0 | 8.0 | 0.00 | 1.40 | 0.97 | 44 | 1006.0 |
| 20260507234523 | 57 | 310 | 2.0 | 8.0 | 0.00 | 1.40 | 0.97 | 41 | 1005.9 |
| 20260507233021 | 58 | 292 | 4.0 | 12.0 | 0.00 | 1.40 | 0.97 | 41 | 1005.8 |
| 20260507231519 | 59 | 317 | 3.0 | 6.0 | 0.00 | 1.40 | 0.97 | 39 | 1005.7 |
| 20260507230021 | 59 | 319 | 3.0 | 10.0 | 0.00 | 1.40 | 0.97 | 41 | 1005.6 |
| 20260507224517 | 60 | 313 | 4.0 | 9.0 | 0.00 | 1.40 | 0.97 | 41 | 1005.5 |
| 20260507223017 | 61 | 298 | 4.0 | 9.0 | 0.00 | 1.40 | 0.97 | 38 | 1005.1 |
| 20260507221516 | 61 | 284 | 3.0 | 14.0 | 0.00 | 1.40 | 0.97 | 37 | 1004.9 |
| 20260507220016 | 61 | 298 | 2.0 | 8.0 | 0.00 | 1.40 | 0.97 | 39 | 1004.9 |
| 20260507214515 | 62 | 290 | 2.0 | 11.0 | 0.00 | 1.40 | 0.97 | 38 | 1004.9 |
| 20260507213018 | 62 | 308 | 4.0 | 11.0 | 0.00 | 1.40 | 0.97 | 39 | 1004.7 |
| 20260507211514 | 62 | 299 | 7.0 | 12.0 | 0.00 | 1.40 | 0.97 | 35 | 1004.7 |
| 20260507210013 | 62 | 286 | 5.0 | 16.0 | 0.00 | 1.40 | 0.97 | 34 | 1004.5 |
| 20260507204512 | 63 | 286 | 6.0 | 14.0 | 0.00 | 1.40 | 0.97 | 39 | 1004.5 |
| 20260507203010 | 63 | 319 | 5.0 | 14.0 | 0.00 | 1.40 | 0.97 | 39 | 1004.3 |
| 20260507201513 | 63 | 300 | 3.0 | 13.0 | 0.00 | 1.40 | 0.97 | 40 | 1004.3 |
| 20260507200008 | 63 | 338 | 6.0 | 16.0 | 0.00 | 1.40 | 0.97 | 36 | 1004.4 |
| 20260507194508 | 63 | 306 | 5.0 | 12.0 | 0.00 | 1.40 | 0.97 | 37 | 1004.5 |
| 20260507193006 | 64 | 336 | 6.0 | 15.0 | 0.00 | 1.40 | 0.97 | 37 | 1004.7 |
| 20260507191504 | 64 | 283 | 2.0 | 11.0 | 0.00 | 1.40 | 0.97 | 38 | 1004.8 |
| 20260507190006 | 64 | 29 | 5.0 | 10.0 | 0.00 | 1.40 | 0.97 | 39 | 1004.9 |
| 20260507184608 | 64 | 335 | 2.0 | 11.0 | 0.00 | 1.40 | 0.97 | 42 | 1005.1 |
| 20260507183104 | 63 | 286 | 3.0 | 10.0 | 0.00 | 1.40 | 0.97 | 41 | 1005.4 |
| 20260507181556 | 63 | 344 | 4.0 | 15.0 | 0.00 | 1.40 | 0.97 | 43 | 1005.6 |
| 20260507180056 | 62 | 290 | 4.0 | 12.0 | 0.00 | 1.40 | 0.97 | 41 | 1005.6 |
| 20260507174554 | 62 | 285 | 4.0 | 11.0 | 0.00 | 1.40 | 0.97 | 41 | 1005.7 |
| 20260507173053 | 62 | 286 | 7.0 | 14.0 | 0.00 | 1.40 | 0.97 | 39 | 1005.8 |
| 20260507171552 | 62 | 310 | 5.0 | 17.0 | 0.00 | 1.40 | 0.97 | 46 | 1005.8 |
| 20260507170051 | 62 | 303 | 4.0 | 13.0 | 0.00 | 1.40 | 0.97 | 53 | 1006.0 |
| 20260507164604 | 61 | 267 | 2.0 | 6.0 | 0.00 | 1.40 | 0.97 | 59 | 1006.1 |
| 20260507163044 | 60 | 331 | 2.0 | 13.0 | 0.00 | 1.40 | 0.97 | 60 | 1006.1 |
| 20260507161547 | 60 | 311 | 6.0 | 13.0 | 0.00 | 1.40 | 0.97 | 59 | 1006.4 |
| 20260507160045 | 60 | 291 | 1.0 | 8.0 | 0.00 | 1.40 | 0.97 | 67 | 1006.5 |
| 20260507154639 | 58 | 281 | 3.0 | 6.0 | 0.00 | 1.40 | 0.97 | 65 | 1006.7 |
| 20260507153035 | 58 | 23 | 3.0 | 6.0 | 0.00 | 1.40 | 0.97 | 68 | 1006.9 |
| 20260507151535 | 58 | 304 | 3.0 | 8.0 | 0.00 | 1.40 | 0.97 | 70 | 1006.9 |
| 20260507150035 | 57 | 302 | 4.0 | 11.0 | 0.00 | 1.40 | 0.97 | 71 | 1007.2 |
| 20260507144530 | 58 | 305 | 2.0 | 5.0 | 0.00 | 1.40 | 0.97 | 73 | 1007.1 |
| 20260507143045 | 57 | 324 | 3.0 | 10.0 | 0.00 | 1.40 | 0.97 | 72 | 1007.2 |
| 20260507141528 | 56 | 306 | 4.0 | 10.0 | 0.00 | 1.40 | 0.97 | 73 | 1007.4 |
| 20260507140021 | 55 | 327 | 3.0 | 9.0 | 0.00 | 1.40 | 0.97 | 79 | 1007.4 |
| 20260507134517 | 54 | 284 | 1.0 | 9.0 | 0.00 | 1.40 | 0.97 | 84 | 1007.3 |
| 20260507133013 | 52 | 14 | 3.0 | 6.0 | 0.83 | 1.40 | 0.97 | 91 | 1007.6 |
| 20260507131511 | 51 | 336 | 1.0 | 8.0 | 0.83 | 1.40 | 0.97 | 95 | 1007.5 |
| 20260507130026 | 50 | 317 | 3.0 | 9.0 | 0.84 | 1.40 | 0.97 | 96 | 1007.8 |
| 20260507124507 | 50 | 351 | 1.0 | 3.0 | 0.84 | 1.40 | 0.97 | 97 | 1007.6 |
| 20260507123007 | 50 | 327 | 0.0 | 3.0 | 0.01 | 0.56 | 0.14 | 97 | 1007.5 |
| 20260507121505 | 49 | 329 | 0.0 | 2.0 | 0.01 | 0.56 | 0.14 | 96 | 1007.8 |
| 20260507120005 | 49 | 308 | 0.0 | 3.0 | 0.05 | 0.56 | 0.13 | 96 | 1007.5 |
| 20260507114504 | 48 | 304 | 0.0 | 2.0 | 0.07 | 0.56 | 0.13 | 96 | 1007.5 |
| 20260507113001 | 48 | 304 | 0.0 | 1.0 | 0.07 | 0.56 | 0.13 | 96 | 1007.2 |
| 20260507111601 | 48 | 304 | 0.0 | 1.0 | 0.07 | 0.56 | 0.13 | 96 | 1007.5 |
| 20260507110100 | 48 | 306 | 0.0 | 3.0 | 0.02 | 0.51 | 0.08 | 96 | 1007.7 |
| 20260507104604 | 48 | 302 | 0.0 | 3.0 | 0.03 | 0.49 | 0.06 | 96 | 1007.0 |
| 20260507103056 | 48 | 302 | 0.0 | 2.0 | 0.03 | 0.49 | 0.06 | 95 | 1006.9 |
| 20260507101554 | 48 | 69 | 0.0 | 3.0 | 0.03 | 0.49 | 0.06 | 96 | 1007.2 |
| 20260507100058 | 48 | 286 | 0.0 | 2.0 | 0.03 | 0.49 | 0.06 | 95 | 1007.2 |
| 20260507094550 | 48 | 286 | 0.0 | 2.0 | 0.01 | 0.46 | 0.03 | 95 | 1006.9 |
| 20260507093049 | 48 | 287 | 0.0 | 3.0 | 0.01 | 0.46 | 0.03 | 95 | 1006.8 |
| 20260507091548 | 48 | 287 | 0.0 | 1.0 | 0.01 | 0.46 | 0.03 | 95 | 1006.7 |
| 20260507090057 | 49 | 286 | 2.0 | 5.0 | 0.01 | 0.46 | 0.03 | 94 | 1006.8 |
| 20260507084551 | 49 | 321 | 0.0 | 5.0 | 0.00 | 0.45 | 0.02 | 94 | 1006.3 |
| 20260507083042 | 49 | 323 | 3.0 | 8.0 | 0.02 | 0.45 | 0.02 | 93 | 1006.4 |
| 20260507081550 | 50 | 315 | 2.0 | 11.0 | 0.02 | 0.45 | 0.02 | 93 | 1006.0 |
| 20260507080034 | 52 | 298 | 2.0 | 5.0 | 0.02 | 0.45 | 0.02 | 93 | 1006.8 |
| 20260507074529 | 53 | 300 | 2.0 | 8.0 | 0.02 | 0.45 | 0.02 | 93 | 1006.5 |
| 20260507073027 | 55 | 315 | 1.0 | 5.0 | 0.00 | 0.43 | 0.00 | 92 | 1005.9 |
| 20260507071528 | 55 | 303 | 2.0 | 7.0 | 0.00 | 0.43 | 0.00 | 95 | 1005.2 |
| 20260507070023 | 56 | 291 | 0.0 | 3.0 | 0.00 | 0.43 | 0.00 | 96 | 1005.1 |
| 20260507064533 | 56 | 306 | 1.0 | 8.0 | 0.00 | 0.43 | 0.00 | 96 | 1005.3 |
| 20260507063020 | 56 | 5 | 0.0 | 2.0 | 0.00 | 0.43 | 0.00 | 97 | 1005.4 |
| 20260507061518 | 56 | 25 | 0.0 | 0.0 | 0.00 | 0.43 | 0.00 | 97 | 1005.4 |
| 20260507060020 | 56 | 25 | 0.0 | 0.0 | 0.00 | 0.43 | 0.00 | 97 | 1005.5 |
| 20260507054516 | 56 | 25 | 0.0 | 1.0 | 0.00 | 0.43 | 0.00 | 97 | 1005.8 |
| 20260507053013 | 56 | 25 | 0.0 | 0.0 | 0.00 | 0.43 | 0.00 | 97 | 1005.8 |